Time;durP1;ratioP1;P1;durP2;ratioP2;P2;SDS_P1;SDS_P2;PMS_P1;PMS_P2;Temp;Humidity;BMP_temperature;BMP_pressure;BME280_temperature;BME280_humidity;BME280_pressure;Samples;Min_cycle;Max_cycle;Signal;HPM_P1;HPM_P2
2023/04/02 00:02:20;;;;;;;6.90;4.30;;;;;;;7.18;98.71;99706.39;105663;1256;103286;-77
2023/04/02 00:05:30;;;;;;;7.80;4.80;;;;;;;7.18;98.61;99708.52;105547;1256;99115;-75
2023/04/02 00:08:37;;;;;;;6.10;4.20;;;;;;;7.16;98.39;99714.73;105623;1254;97929;-77
2023/04/02 00:11:43;;;;;;;5.30;4.50;;;;;;;7.16;98.22;99718.40;105581;1258;99130;-78
2023/04/02 00:14:35;;;;;;;5.70;4.30;;;;;;;7.13;98.18;99722.46;105619;1253;97818;-77
2023/04/02 00:17:23;;;;;;;10.40;5.10;;;;;;;7.11;98.41;99721.16;107284;1257;101307;-77
2023/04/02 00:20:15;;;;;;;7.70;5.10;;;;;;;7.10;98.49;99720.90;105903;1254;99888;-78
2023/04/02 00:23:02;;;;;;;7.40;5.70;;;;;;;7.08;98.83;99728.17;105520;1253;99050;-77
2023/04/02 00:25:47;;;;;;;11.30;8.00;;;;;;;7.08;99.03;99731.24;105809;1257;97944;-81
2023/04/02 00:28:33;;;;;;;10.70;8.50;;;;;;;7.08;99.27;99732.15;105658;1256;98405;-76
2023/04/02 00:31:20;;;;;;;12.40;8.50;;;;;;;7.05;99.36;99733.05;105822;1254;102043;-80
2023/04/02 00:34:08;;;;;;;12.30;9.00;;;;;;;7.02;99.42;99733.58;105664;1259;100397;-78
2023/04/02 00:36:55;;;;;;;11.90;8.80;;;;;;;6.99;99.60;99735.27;105570;1259;99658;-77
2023/04/02 00:39:41;;;;;;;13.00;9.10;;;;;;;6.95;99.60;99732.73;105691;1257;97902;-79
2023/04/02 00:42:29;;;;;;;11.30;8.60;;;;;;;6.93;99.83;99733.77;105539;1256;99103;-79
2023/04/02 00:45:31;;;;;;;12.00;9.40;;;;;;;6.91;99.87;99737.88;105459;1252;101327;-78
2023/04/02 00:48:41;;;;;;;10.70;8.60;;;;;;;6.87;99.92;99739.81;105605;1256;99554;-79
2023/04/02 00:51:40;;;;;;;13.30;9.10;;;;;;;6.81;99.91;99741.28;105764;1256;97992;-79
2023/04/02 00:54:31;;;;;;;9.60;7.70;;;;;;;6.76;100.00;99743.56;105824;1254;97857;-79
2023/04/02 00:57:24;;;;;;;12.70;9.10;;;;;;;6.72;100.00;99745.51;106163;1256;97813;-78
2023/04/02 01:00:14;;;;;;;11.30;8.60;;;;;;;6.68;100.00;99750.14;105718;1269;103038;-78
2023/04/02 01:03:15;;;;;;;10.60;8.60;;;;;;;6.61;100.00;99753.08;105836;1256;100336;-78
2023/04/02 01:06:09;;;;;;;11.00;8.70;;;;;;;6.55;100.00;99756.80;105698;1254;98033;-77
2023/04/02 01:09:47;;;;;;;11.30;8.20;;;;;;;6.53;100.00;99764.29;105511;1259;97963;-77
2023/04/02 01:13:01;;;;;;;11.80;8.20;;;;;;;6.49;100.00;99769.56;105300;1262;98602;-77
2023/04/02 01:16:10;;;;;;;11.70;8.10;;;;;;;6.44;100.00;99775.92;105388;1257;101312;-77
2023/04/02 01:19:49;;;;;;;11.60;7.90;;;;;;;6.37;100.00;99775.69;105610;1253;99054;-79
2023/04/02 01:22:51;;;;;;;10.90;8.50;;;;;;;6.31;100.00;99778.80;105364;1254;98021;-77
2023/04/02 01:25:36;;;;;;;9.10;7.80;;;;;;;6.27;100.00;99781.77;105738;1259;97957;-78
2023/04/02 01:28:34;;;;;;;11.90;8.70;;;;;;;6.22;100.00;99783.22;105580;1256;97953;-79
2023/04/02 01:31:20;;;;;;;13.80;8.90;;;;;;;6.18;100.00;99784.17;105892;1253;102594;-78
2023/04/02 01:34:13;;;;;;;12.00;8.40;;;;;;;6.14;100.00;99787.01;105525;1254;100677;-78
2023/04/02 01:37:31;;;;;;;11.30;8.50;;;;;;;6.09;100.00;99790.64;105270;1260;99416;-77
2023/04/02 01:40:38;;;;;;;9.90;7.70;;;;;;;6.05;100.00;99789.70;105540;1254;97967;-78
2023/04/02 01:43:48;;;;;;;10.00;7.80;;;;;;;6.04;100.00;99790.50;105691;1257;97884;-80
2023/04/02 01:46:39;;;;;;;10.00;7.10;;;;;;;6.03;100.00;99797.06;105525;1259;102623;-78
2023/04/02 01:49:26;;;;;;;10.80;7.80;;;;;;;6.00;100.00;99801.63;105818;1258;100439;-79
2023/04/02 01:52:24;;;;;;;12.00;8.90;;;;;;;5.97;100.00;99804.82;105885;1256;98045;-78
2023/04/02 01:55:13;;;;;;;11.50;8.70;;;;;;;5.93;100.00;99811.48;105704;1259;98048;-79
2023/04/02 01:58:00;;;;;;;12.80;8.70;;;;;;;5.90;100.00;99810.77;106202;1259;99246;-79
2023/04/02 02:00:54;;;;;;;9.50;7.90;;;;;;;5.88;100.00;99811.19;106296;1253;102618;-78
2023/04/02 02:03:43;;;;;;;12.60;8.30;;;;;;;5.87;100.00;99816.44;105820;1254;99226;-80
2023/04/02 02:06:30;;;;;;;10.80;8.20;;;;;;;5.87;100.00;99823.18;105605;1254;99004;-78
2023/04/02 02:09:23;;;;;;;10.30;7.60;;;;;;;5.88;100.00;99827.27;105576;1254;98571;-79
2023/04/02 02:12:12;;;;;;;9.70;7.50;;;;;;;5.88;100.00;99830.89;105634;1256;98516;-77
2023/04/02 02:14:58;;;;;;;9.30;7.50;;;;;;;5.83;100.00;99831.26;105744;1257;102096;-77
2023/04/02 02:17:44;;;;;;;10.30;6.80;;;;;;;5.80;100.00;99831.96;105536;1253;100332;-77
2023/04/02 02:20:31;;;;;;;10.60;7.30;;;;;;;5.77;100.00;99837.35;105579;1257;99208;-77
2023/04/02 02:23:18;;;;;;;10.10;6.60;;;;;;;5.74;100.00;99846.08;105576;1253;97956;-78
2023/04/02 02:26:05;;;;;;;11.20;6.90;;;;;;;5.72;100.00;99844.54;105619;1254;97749;-79
2023/04/02 02:28:55;;;;;;;8.20;6.30;;;;;;;5.69;100.00;99842.88;105671;1256;102608;-78
2023/04/02 02:31:43;;;;;;;8.50;6.70;;;;;;;5.67;100.00;99849.23;105298;1258;99136;-79
2023/04/02 02:34:41;;;;;;;9.40;7.30;;;;;;;5.63;100.00;99849.52;105436;1259;97841;-78
2023/04/02 02:37:31;;;;;;;7.50;5.30;;;;;;;5.61;100.00;99850.92;105462;1259;97852;-77
2023/04/02 02:40:26;;;;;;;6.30;5.10;;;;;;;5.57;100.00;99854.55;105379;1260;97877;-78
2023/04/02 02:43:13;;;;;;;10.00;7.20;;;;;;;5.49;100.00;99855.32;105505;1259;102955;-78
2023/04/02 02:46:03;;;;;;;9.10;6.70;;;;;;;5.41;100.00;99859.38;105409;1256;100423;-77
2023/04/02 02:48:52;;;;;;;7.50;6.30;;;;;;;5.35;100.00;99860.77;105300;1254;98076;-77
2023/04/02 02:51:52;;;;;;;8.30;6.40;;;;;;;5.31;100.00;99863.31;105381;1259;98023;-78
2023/04/02 02:54:48;;;;;;;8.80;7.00;;;;;;;5.27;100.00;99864.02;105350;1253;98569;-77
2023/04/02 02:57:40;;;;;;;9.40;6.80;;;;;;;5.24;100.00;99870.02;105895;1253;101838;-81
2023/04/02 03:00:26;;;;;;;9.30;7.30;;;;;;;5.21;100.00;99873.34;105398;1275;100051;-78
2023/04/02 03:03:20;;;;;;;8.20;7.00;;;;;;;5.19;100.00;99880.78;106144;1257;97922;-77
2023/04/02 03:06:12;;;;;;;8.50;6.40;;;;;;;5.20;100.00;99881.25;105311;1262;98175;-80
2023/04/02 03:09:16;;;;;;;8.90;6.80;;;;;;;5.20;100.00;99882.52;105575;1259;98482;-78
2023/04/02 03:12:24;;;;;;;8.80;6.90;;;;;;;5.18;100.00;99886.59;105243;1257;101326;-78
2023/04/02 03:15:26;;;;;;;7.70;6.40;;;;;;;5.16;100.00;99888.39;105459;1259;99939;-78
2023/04/02 03:18:33;;;;;;;11.20;7.70;;;;;;;5.13;100.00;99890.71;105294;1256;99304;-77
2023/04/02 03:21:44;;;;;;;10.10;6.90;;;;;;;5.10;100.00;99890.86;105352;1259;98152;-78
2023/04/02 03:24:35;;;;;;;;;;;;;;;5.06;100.00;99891.66;105500;1259;97954;-78
2023/04/02 03:27:38;;;;;;;9.40;6.90;;;;;;;5.02;100.00;99894.59;105247;1254;101982;-78
2023/04/02 03:30:37;;;;;;;9.40;6.70;;;;;;;5.00;100.00;99901.32;105761;1257;100850;-79
2023/04/02 03:33:35;;;;;;;11.00;6.70;;;;;;;4.98;100.00;99903.69;105769;1254;99530;-80
2023/04/02 03:36:30;;;;;;;10.70;8.30;;;;;;;4.96;100.00;99909.82;105627;1262;97878;-77
2023/04/02 03:39:29;;;;;;;9.40;7.40;;;;;;;4.93;100.00;99914.02;105478;1259;98572;-77
2023/04/02 03:42:24;;;;;;;9.60;7.40;;;;;;;4.93;100.00;99916.16;105418;1254;101381;-78
2023/04/02 03:45:17;;;;;;;8.70;7.80;;;;;;;4.93;100.00;99922.89;105528;1253;99114;-78
2023/04/02 03:48:19;;;;;;;10.30;7.80;;;;;;;4.91;100.00;99926.39;105686;1255;98883;-79
2023/04/02 03:51:25;;;;;;;9.10;6.90;;;;;;;4.91;100.00;99930.66;105361;1260;98072;-77
2023/04/02 03:54:15;;;;;;;9.70;7.50;;;;;;;4.89;100.00;99934.73;105598;1257;98409;-78
2023/04/02 03:57:01;;;;;;;9.30;7.70;;;;;;;4.88;100.00;99936.30;106011;1253;101377;-77
2023/04/02 04:00:06;;;;;;;10.20;8.20;;;;;;;4.88;100.00;99938.66;105356;1262;99256;-77
2023/04/02 04:03:24;;;;;;;8.50;6.50;;;;;;;4.86;100.00;99938.49;105754;1256;98980;-78
2023/04/02 04:06:22;;;;;;;8.80;7.30;;;;;;;4.80;100.00;99940.91;105424;1257;98122;-78
2023/04/02 04:09:21;;;;;;;11.00;7.70;;;;;;;4.74;100.00;99941.75;105403;1256;99244;-77
2023/04/02 04:12:25;;;;;;;8.80;6.90;;;;;;;4.71;100.00;99942.80;105691;1254;102607;-78
2023/04/02 04:15:29;;;;;;;10.30;7.60;;;;;;;4.68;100.00;99947.14;105576;1259;100852;-78
2023/04/02 04:18:18;;;;;;;10.10;6.90;;;;;;;4.65;100.00;99956.08;105477;1257;98960;-78
2023/04/02 04:21:14;;;;;;;10.80;7.90;;;;;;;4.64;100.00;99959.05;105535;1254;98022;-78
2023/04/02 04:24:02;;;;;;;10.60;7.60;;;;;;;4.63;100.00;99963.82;105794;1256;99137;-77
2023/04/02 04:27:12;;;;;;;10.10;8.00;;;;;;;4.61;100.00;99963.67;105836;1253;102360;-80
2023/04/02 04:30:15;;;;;;;10.90;7.50;;;;;;;4.59;100.00;99966.86;105796;1254;99034;-77
2023/04/02 04:33:09;;;;;;;11.40;7.40;;;;;;;4.59;100.00;99968.98;105885;1253;98692;-76
2023/04/02 04:35:58;;;;;;;10.90;7.60;;;;;;;4.56;100.00;99975.17;105774;1258;97862;-77
2023/04/02 04:38:54;;;;;;;9.30;7.20;;;;;;;4.54;100.00;99982.23;105483;1254;98499;-76
2023/04/02 04:41:41;;;;;;;10.30;7.30;;;;;;;4.53;100.00;99989.59;105466;1256;101477;-78
2023/04/02 04:44:36;;;;;;;9.20;7.30;;;;;;;4.51;100.00;99989.88;105676;1254;99063;-77
2023/04/02 04:47:48;;;;;;;9.70;6.70;;;;;;;4.48;100.00;99994.75;105571;1253;98500;-78
2023/04/02 04:50:54;;;;;;;9.00;6.40;;;;;;;4.46;100.00;99998.36;105509;1262;98577;-78
2023/04/02 04:53:50;;;;;;;7.30;6.00;;;;;;;4.45;100.00;100003.24;105735;1255;98455;-78
2023/04/02 04:56:37;;;;;;;8.00;5.40;;;;;;;4.43;100.00;100008.39;105521;1257;101329;-76
2023/04/02 04:59:46;;;;;;;5.90;4.90;;;;;;;4.43;100.00;100011.89;105596;1254;99092;-77
2023/04/02 05:02:48;;;;;;;8.10;4.90;;;;;;;4.42;100.00;100017.28;105548;1264;99368;-79
2023/04/02 05:05:38;;;;;;;6.90;5.10;;;;;;;4.39;100.00;100020.52;105522;1260;98008;-78
2023/04/02 05:08:29;;;;;;;5.30;4.40;;;;;;;4.36;100.00;100027.46;105339;1256;97928;-80
2023/04/02 05:11:26;;;;;;;6.10;5.00;;;;;;;4.36;100.00;100029.58;105561;1254;101344;-78
2023/04/02 05:14:30;;;;;;;6.60;4.90;;;;;;;4.36;100.00;100031.55;105924;1254;99051;-78
2023/04/02 05:17:34;;;;;;;6.90;5.00;;;;;;;4.35;100.00;100038.90;105673;1260;98182;-77
2023/04/02 05:20:31;;;;;;;7.60;5.20;;;;;;;4.31;100.00;100043.40;105747;1254;98075;-78
2023/04/02 05:23:29;;;;;;;6.90;5.10;;;;;;;4.27;100.00;100043.52;106461;1260;98379;-79
2023/04/02 05:26:36;;;;;;;6.20;4.40;;;;;;;4.21;100.00;100049.11;107560;1256;102077;-79
2023/04/02 05:29:33;;;;;;;6.50;5.30;;;;;;;4.17;100.00;100052.38;105820;1257;99053;-78
2023/04/02 05:32:33;;;;;;;6.70;5.10;;;;;;;4.15;100.00;100053.09;105648;1269;99025;-80
2023/04/02 05:35:27;;;;;;;6.90;4.80;;;;;;;4.14;100.00;100059.92;105961;1259;98061;-80
2023/04/02 05:38:21;;;;;;;6.60;4.90;;;;;;;4.12;100.00;100061.54;105773;1260;98402;-77
2023/04/02 05:41:19;;;;;;;7.80;5.90;;;;;;;4.10;100.00;100066.36;105649;1254;102521;-79
2023/04/02 05:44:30;;;;;;;7.20;6.00;;;;;;;4.07;100.00;100068.46;105884;1253;100337;-78
2023/04/02 05:47:28;;;;;;;8.10;6.80;;;;;;;4.06;100.00;100076.48;105982;1254;97959;-79
2023/04/02 05:50:47;;;;;;;9.40;7.20;;;;;;;4.05;100.00;100083.61;105836;1254;97983;-78
2023/04/02 05:53:43;;;;;;;10.40;8.10;;;;;;;4.03;100.00;100088.31;105941;1256;98475;-79
2023/04/02 05:56:41;;;;;;;11.20;7.10;;;;;;;3.99;100.00;100089.98;105881;1257;102750;-78
2023/04/02 05:59:33;;;;;;;8.80;7.40;;;;;;;3.95;100.00;100099.20;105333;1264;100375;-78
2023/04/02 06:02:43;;;;;;;9.00;6.80;;;;;;;3.91;100.00;100103.42;105651;1257;99054;-79
2023/04/02 06:05:37;;;;;;;8.50;6.70;;;;;;;3.87;100.00;100108.56;105547;1258;97930;-77
2023/04/02 06:08:29;;;;;;;;;;;;;;;3.86;100.00;100111.40;105352;1259;98010;-78
2023/04/02 06:11:30;;;;;;;7.70;5.90;;;;;;;3.82;100.00;100118.13;105482;1259;101270;-78
2023/04/02 06:14:17;;;;;;;7.50;5.50;;;;;;;3.81;100.00;100125.70;105388;1256;100062;-77
2023/04/02 06:17:04;;;;;;;7.20;5.20;;;;;;;3.80;100.00;100127.71;105973;1256;98967;-79
2023/04/02 06:19:53;;;;;;;6.60;5.00;;;;;;;3.76;100.00;100133.56;105896;1257;98152;-78
2023/04/02 06:22:42;;;;;;;6.90;4.50;;;;;;;3.73;100.00;100137.84;105534;1253;97953;-78
2023/04/02 06:25:40;;;;;;;6.50;4.70;;;;;;;3.71;100.00;100142.95;105266;1254;101313;-78
2023/04/02 06:28:44;;;;;;;4.20;3.70;;;;;;;3.71;100.00;100145.58;105527;1254;100150;-77
2023/04/02 06:31:34;;;;;;;5.70;4.60;;;;;;;3.70;100.00;100145.50;105865;1257;97897;-79
2023/04/02 06:34:26;;;;;;;6.70;4.90;;;;;;;3.69;100.00;100146.25;105377;1260;97922;-76
2023/04/02 06:37:36;;;;;;;5.90;4.20;;;;;;;3.71;100.00;100149.34;107886;1260;97136;-77
2023/04/02 06:40:47;;;;;;;5.80;4.90;;;;;;;3.72;100.00;100154.34;105684;1257;101364;-77
2023/04/02 06:43:56;;;;;;;5.80;4.20;;;;;;;3.73;100.00;100157.21;105267;1260;100337;-77
2023/04/02 06:46:59;;;;;;;5.50;4.10;;;;;;;3.73;100.00;100165.29;105302;1260;98043;-76
2023/04/02 06:49:51;;;;;;;5.80;4.10;;;;;;;3.73;100.00;100171.17;105633;1260;99237;-79
2023/04/02 06:52:47;;;;;;;5.60;4.60;;;;;;;3.72;100.00;100176.89;105557;1254;98027;-76
2023/04/02 06:56:01;;;;;;;6.70;4.90;;;;;;;3.74;100.00;100181.31;105318;1258;101332;-76
2023/04/02 06:58:48;;;;;;;7.80;5.50;;;;;;;3.76;100.00;100183.79;105671;1256;99102;-77
2023/04/02 07:01:44;;;;;;;6.60;4.50;;;;;;;3.77;100.00;100183.77;105525;1260;99490;-85
2023/04/02 07:04:30;;;;;;;7.50;4.60;;;;;;;3.82;100.00;100183.49;106214;1259;97953;-83
2023/04/02 07:07:17;;;;;;;6.30;4.80;;;;;;;3.84;100.00;100183.52;106223;1261;98496;-85
2023/04/02 07:10:07;;;;;;;6.80;5.20;;;;;;;3.84;100.00;100188.05;106479;1254;102192;-85
2023/04/02 07:12:54;;;;;;;5.60;4.40;;;;;;;3.83;100.00;100192.74;106135;1254;99361;-81
2023/04/02 07:15:43;;;;;;;6.50;4.70;;;;;;;3.81;100.00;100195.91;106167;1268;99070;-84
2023/04/02 07:18:32;;;;;;;6.60;4.60;;;;;;;3.82;100.00;100201.02;106207;1260;98231;-83
2023/04/02 07:21:22;;;;;;;7.10;5.50;;;;;;;3.82;100.00;100203.23;106066;1257;98399;-80
2023/04/02 07:24:07;;;;;;;7.10;5.50;;;;;;;3.86;100.00;100211.55;106243;1256;101397;-81
2023/04/02 07:26:53;;;;;;;6.20;4.80;;;;;;;3.90;100.00;100216.91;105982;1257;99065;-82
2023/04/02 07:29:41;;;;;;;7.10;5.10;;;;;;;3.93;100.00;100224.61;105874;1260;99001;-81
2023/04/02 07:32:27;;;;;;;6.60;4.80;;;;;;;3.94;100.00;100230.56;106611;1257;98040;-80
2023/04/02 07:35:12;;;;;;;6.80;4.70;;;;;;;3.94;100.00;100233.90;106294;1260;97986;-79
2023/04/02 07:37:58;;;;;;;7.40;5.60;;;;;;;3.94;100.00;100235.81;106209;1255;101419;-82
2023/04/02 07:40:44;;;;;;;6.90;4.50;;;;;;;3.96;100.00;100242.00;106268;1258;99392;-81
2023/04/02 07:43:29;;;;;;;5.70;4.50;;;;;;;3.96;100.00;100244.86;106330;1258;99066;-82
2023/04/02 07:46:16;;;;;;;7.00;5.10;;;;;;;3.96;100.00;100249.05;106098;1260;98047;-80
2023/04/02 07:49:02;;;;;;;6.90;5.20;;;;;;;3.98;100.00;100249.16;106261;1257;97868;-80
2023/04/02 07:51:48;;;;;;;7.40;5.60;;;;;;;4.00;100.00;100249.66;106205;1256;102373;-83
2023/04/02 07:54:34;;;;;;;7.30;5.20;;;;;;;4.01;100.00;100249.09;106382;1255;99304;-80
2023/04/02 07:57:20;;;;;;;7.60;5.40;;;;;;;4.02;100.00;100248.73;106356;1257;97919;-82
2023/04/02 08:00:10;;;;;;;7.10;4.90;;;;;;;4.04;100.00;100247.14;106103;1260;98622;-82
2023/04/02 08:02:58;;;;;;;8.40;5.60;;;;;;;4.03;100.00;100249.02;106139;1260;97984;-83
2023/04/02 08:05:50;;;;;;;9.30;5.20;;;;;;;4.02;100.00;100254.59;106164;1259;102734;-83
2023/04/02 08:08:36;;;;;;;7.30;5.30;;;;;;;4.04;100.00;100256.91;106215;1254;99677;-82
2023/04/02 08:11:21;;;;;;;9.30;5.80;;;;;;;4.07;100.00;100262.77;105972;1254;98014;-80
2023/04/02 08:14:08;;;;;;;7.50;5.10;;;;;;;4.09;100.00;100268.02;106031;1259;97804;-77
2023/04/02 08:16:54;;;;;;;8.20;5.50;;;;;;;4.10;100.00;100275.54;105561;1257;97963;-76
2023/04/02 08:19:40;;;;;;;8.30;5.50;;;;;;;4.11;100.00;100278.04;105431;1260;102601;-77
2023/04/02 08:22:29;;;;;;;7.20;4.90;;;;;;;4.15;100.00;100284.39;105686;1267;100493;-75
2023/04/02 08:25:15;;;;;;;10.80;6.10;;;;;;;4.16;100.00;100289.54;105399;1254;97992;-76
2023/04/02 08:28:01;;;;;;;8.50;5.20;;;;;;;4.16;100.00;100295.73;105454;1259;97979;-75
2023/04/02 08:30:48;;;;;;;6.40;5.10;;;;;;;4.17;100.00;100300.28;106395;1253;97935;-82
2023/04/02 08:33:34;;;;;;;7.10;5.50;;;;;;;4.15;100.00;100305.83;106030;1254;103123;-79
2023/04/02 08:36:35;;;;;;;8.20;5.10;;;;;;;4.16;100.00;100312.58;106013;1257;99061;-85
2023/04/02 08:39:21;;;;;;;5.90;5.00;;;;;;;4.18;100.00;100318.58;106120;1254;98339;-82
2023/04/02 08:42:45;;;;;;;6.50;4.60;;;;;;;4.20;100.00;100321.04;106106;1260;98038;-83
2023/04/02 08:45:31;;;;;;;7.40;5.60;;;;;;;4.16;100.00;100324.04;106267;1253;98375;-85
2023/04/02 08:48:17;;;;;;;5.80;4.90;;;;;;;4.14;100.00;100333.63;106063;1257;101789;-81
2023/04/02 08:51:04;;;;;;;6.70;4.90;;;;;;;4.10;100.00;100336.86;106321;1255;100431;-81
2023/04/02 08:53:58;;;;;;;7.10;4.90;;;;;;;4.06;100.00;100344.30;106269;1254;98524;-80
2023/04/02 08:57:13;;;;;;;6.10;4.20;;;;;;;4.04;100.00;100349.99;106218;1260;97967;-79
2023/04/02 09:00:10;;;;;;;5.80;4.10;;;;;;;4.07;100.00;100353.40;106076;1255;98385;-82
2023/04/02 09:03:05;;;;;;;7.10;5.10;;;;;;;4.11;100.00;100354.99;106248;1254;101380;-82
2023/04/02 09:05:52;;;;;;;6.70;5.20;;;;;;;4.12;100.00;100355.02;106364;1260;100289;-82
2023/04/02 09:08:39;;;;;;;7.00;4.90;;;;;;;4.15;100.00;100357.23;106222;1254;98017;-80
2023/04/02 09:11:40;;;;;;;6.90;5.10;;;;;;;4.13;100.00;100361.41;106344;1257;97957;-81
2023/04/02 09:14:41;;;;;;;6.70;4.90;;;;;;;4.11;100.00;100364.16;106196;1257;97947;-81
2023/04/02 09:17:27;;;;;;;7.50;5.10;;;;;;;4.09;100.00;100362.93;106581;1252;102584;-80
2023/04/02 09:20:22;;;;;;;7.90;5.50;;;;;;;4.09;100.00;100364.66;105964;1260;100388;-80
2023/04/02 09:23:18;;;;;;;8.10;5.40;;;;;;;4.14;100.00;100370.34;106098;1257;98820;-85
2023/04/02 09:26:23;;;;;;;6.10;5.20;;;;;;;4.17;100.00;100373.64;106112;1260;98946;-82
2023/04/02 09:29:12;;;;;;;7.60;4.60;;;;;;;4.17;100.00;100377.81;105993;1254;97989;-82
2023/04/02 09:32:24;;;;;;;6.20;5.30;;;;;;;4.19;100.00;100383.13;106046;1257;101324;-82
2023/04/02 09:35:16;;;;;;;6.80;5.20;;;;;;;4.23;100.00;100390.63;105832;1264;101605;-80
2023/04/02 09:38:20;;;;;;;6.50;4.90;;;;;;;4.25;100.00;100387.23;105938;1256;98459;-83
2023/04/02 09:41:19;;;;;;;7.40;5.50;;;;;;;4.29;100.00;100385.45;106068;1264;98052;-79
2023/04/02 09:44:25;;;;;;;5.60;4.80;;;;;;;4.35;100.00;100389.98;106057;1258;98370;-79
2023/04/02 09:47:25;;;;;;;6.90;5.10;;;;;;;4.37;100.00;100393.31;105935;1260;102050;-81
2023/04/02 09:50:31;;;;;;;6.60;4.60;;;;;;;4.32;100.00;100401.59;105570;1258;100382;-83
2023/04/02 09:53:34;;;;;;;6.10;4.30;;;;;;;4.29;100.00;100404.76;105982;1260;98604;-82
2023/04/02 09:56:23;;;;;;;7.50;5.00;;;;;;;4.27;100.00;100408.70;106259;1257;98091;-81
2023/04/02 09:59:11;;;;;;;6.70;5.10;;;;;;;4.22;100.00;100413.19;106368;1256;97863;-81
2023/04/02 10:02:02;;;;;;;5.70;4.80;;;;;;;4.19;100.00;100417.20;105972;1260;102614;-84
2023/04/02 10:04:48;;;;;;;6.40;4.10;;;;;;;4.20;100.00;100419.82;106052;1260;99077;-80
2023/04/02 10:07:44;;;;;;;4.30;3.50;;;;;;;4.22;100.00;100424.16;105994;1257;99239;-81
2023/04/02 10:10:42;;;;;;;4.80;3.70;;;;;;;4.24;100.00;100428.95;106033;1258;98931;-84
2023/04/02 10:13:34;;;;;;;3.60;3.20;;;;;;;4.22;100.00;100438.63;105984;1257;98026;-83
2023/04/02 10:16:34;;;;;;;5.00;4.00;;;;;;;4.21;100.00;100442.14;105923;1256;101364;-81
2023/04/02 10:19:35;;;;;;;4.90;3.80;;;;;;;4.16;100.00;100445.41;105563;1260;100383;-81
2023/04/02 10:22:22;;;;;;;4.20;3.30;;;;;;;4.14;100.00;100447.93;105948;1263;98584;-80
2023/04/02 10:25:15;;;;;;;4.20;3.60;;;;;;;4.11;100.00;100452.30;105583;1257;97955;-79
2023/04/02 10:28:26;;;;;;;4.50;3.50;;;;;;;4.06;100.00;100456.90;106097;1256;95940;-83
2023/04/02 10:31:25;;;;;;;4.60;3.20;;;;;;;3.97;100.00;100458.64;106178;1260;101616;-82
2023/04/02 10:34:44;;;;;;;4.50;3.70;;;;;;;3.90;100.00;100458.26;106134;1257;100359;-81
2023/04/02 10:37:48;;;;;;;5.10;3.40;;;;;;;3.87;100.00;100467.72;106159;1260;97892;-83
2023/04/02 10:40:39;;;;;;;4.90;3.90;;;;;;;3.82;100.00;100472.56;106258;1259;97965;-80
2023/04/02 10:43:39;;;;;;;5.20;3.80;;;;;;;3.74;100.00;100477.13;105903;1255;98056;-82
2023/04/02 10:46:39;;;;;;;4.60;3.60;;;;;;;3.65;100.00;100478.88;106157;1260;101376;-84
2023/04/02 10:50:01;;;;;;;5.90;3.90;;;;;;;3.62;100.00;100478.83;106088;1260;99143;-84
2023/04/02 10:52:56;;;;;;;4.90;2.90;;;;;;;3.59;100.00;100483.82;106255;1256;97918;-84
2023/04/02 10:55:54;;;;;;;5.30;3.80;;;;;;;3.55;100.00;100492.58;106272;1260;98135;-83
2023/04/02 10:58:58;;;;;;;3.90;3.50;;;;;;;3.51;100.00;100501.44;106125;1256;97890;-83
2023/04/02 11:01:48;;;;;;;4.40;3.50;;;;;;;3.50;100.00;100505.52;106364;1254;102789;-81
2023/04/02 11:04:44;;;;;;;3.80;3.30;;;;;;;3.43;100.00;100510.85;106040;1257;99902;-81
2023/04/02 11:07:39;;;;;;;4.10;3.00;;;;;;;3.37;100.00;100516.46;106065;1258;98012;-80
2023/04/02 11:10:29;;;;;;;5.20;4.00;;;;;;;3.32;100.00;100521.88;106182;1260;98063;-82
2023/04/02 11:13:42;;;;;;;4.00;3.60;;;;;;;3.28;100.00;100527.95;106241;1254;98498;-86
2023/04/02 11:16:28;;;;;;;6.20;3.80;;;;;;;3.20;100.00;100529.73;106589;1256;101337;-84
2023/04/02 11:19:13;;;;;;;4.40;3.60;;;;;;;3.12;100.00;100535.58;106216;1261;100353;-79
2023/04/02 11:22:01;;;;;;;6.50;4.20;;;;;;;3.09;100.00;100542.20;106357;1253;99971;-77
2023/04/02 11:24:51;;;;;;;5.70;4.20;;;;;;;3.06;100.00;100547.27;106247;1257;97809;-77
2023/04/02 11:27:37;;;;;;;5.40;4.20;;;;;;;3.02;100.00;100554.29;105695;1257;98516;-86
2023/04/02 11:30:25;;;;;;;5.10;4.00;;;;;;;2.98;100.00;100559.44;106118;1254;102779;-81
2023/04/02 11:33:38;;;;;;;6.20;4.10;;;;;;;2.96;100.00;100564.77;106380;1257;100508;-82
2023/04/02 11:36:51;;;;;;;5.00;4.00;;;;;;;2.96;100.00;100568.86;106092;1257;97982;-83
2023/04/02 11:39:52;;;;;;;6.00;4.30;;;;;;;2.94;100.00;100572.40;106138;1256;97755;-79
2023/04/02 11:42:41;;;;;;;;;;;;;;;2.90;100.00;100571.98;105749;1256;98057;-79
2023/04/02 11:45:26;;;;;;;5.50;4.20;;;;;;;2.89;100.00;100574.23;106268;1257;101326;-81
2023/04/02 11:48:12;;;;;;;5.50;4.00;;;;;;;2.91;100.00;100579.30;105749;1257;99113;-82
2023/04/02 11:51:02;;;;;;;6.50;5.30;;;;;;;2.87;100.00;100576.03;106241;1254;99002;-80
2023/04/02 11:53:50;;;;;;;4.80;4.40;;;;;;;2.85;100.00;100578.48;106269;1257;97996;-83
2023/04/02 11:56:59;;;;;;;6.50;4.80;;;;;;;2.85;100.00;100582.34;106167;1256;98352;-83
2023/04/02 12:00:07;;;;;;;5.70;4.10;;;;;;;2.86;100.00;100586.34;106026;1255;101432;-84
2023/04/02 12:03:27;;;;;;;5.00;4.20;;;;;;;2.89;100.00;100587.28;106077;1257;99150;-83
2023/04/02 12:06:41;;;;;;;6.70;4.90;;;;;;;2.94;100.00;100585.92;105919;1255;97964;-82
2023/04/02 12:09:46;;;;;;;6.20;4.80;;;;;;;3.00;100.00;100590.89;106153;1255;97868;-84
2023/04/02 12:12:37;;;;;;;6.90;5.30;;;;;;;3.00;100.00;100593.50;106087;1257;98474;-81
2023/04/02 12:15:25;;;;;;;8.10;6.00;;;;;;;3.02;100.00;100597.35;106233;1254;101325;-83
2023/04/02 12:18:14;;;;;;;8.40;5.90;;;;;;;3.08;100.00;100597.02;106080;1257;99151;-83
2023/04/02 12:21:01;;;;;;;7.50;6.00;;;;;;;3.12;100.00;100599.48;106051;1256;98342;-82
2023/04/02 12:23:49;;;;;;;7.40;5.80;;;;;;;3.16;100.00;100604.17;105956;1260;97964;-82
2023/04/02 12:26:36;;;;;;;7.60;6.00;;;;;;;3.23;100.00;100605.87;106105;1261;98543;-83
2023/04/02 12:29:27;;;;;;;7.50;5.70;;;;;;;3.28;100.00;100606.98;106242;1258;101368;-82
2023/04/02 12:32:24;;;;;;;9.00;6.30;;;;;;;3.31;100.00;100607.77;106044;1260;100370;-78
2023/04/02 12:35:31;;;;;;;8.40;6.50;;;;;;;3.32;100.00;100608.34;105450;1258;97970;-77
2023/04/02 12:38:20;;;;;;;7.40;5.90;;;;;;;3.30;100.00;100605.61;105692;1254;97990;-77
2023/04/02 12:41:22;;;;;;;9.50;7.00;;;;;;;3.29;100.00;100609.02;106495;1258;97863;-80
2023/04/02 12:44:17;;;;;;;10.90;7.40;;;;;;;3.31;100.00;100615.60;106505;1257;102659;-77
2023/04/02 12:47:03;;;;;;;14.50;9.00;;;;;;;3.35;100.00;100617.10;105909;1255;100469;-78
2023/04/02 12:49:50;;;;;;;13.90;9.80;;;;;;;3.39;100.00;100619.61;105833;1254;97980;-79
2023/04/02 12:52:46;;;;;;;14.70;8.70;;;;;;;3.42;100.00;100625.98;105813;1256;99258;-81
2023/04/02 12:55:32;;;;;;;13.40;9.20;;;;;;;3.44;100.00;100633.35;106415;1253;98386;-80
2023/04/02 12:58:35;;;;;;;15.30;9.40;;;;;;;3.45;100.00;100637.75;106599;1257;101366;-79
2023/04/02 13:01:23;;;;;;;15.00;10.00;;;;;;;3.45;100.00;100642.16;106220;1255;99094;-81
2023/04/02 13:04:11;;;;;;;13.30;8.50;;;;;;;3.44;100.00;100642.08;106412;1254;98455;-81
2023/04/02 13:06:57;;;;;;;12.40;8.80;;;;;;;3.45;100.00;100648.52;106262;1260;97867;-82
2023/04/02 13:09:53;;;;;;;12.50;8.60;;;;;;;3.46;100.00;100651.05;106563;1256;96210;-82
2023/04/02 13:12:40;;;;;;;15.70;9.30;;;;;;;3.48;100.00;100651.91;106742;1255;101344;-81
2023/04/02 13:15:30;;;;;;;12.00;8.60;;;;;;;3.49;100.00;100654.95;106560;1253;99212;-81
2023/04/02 13:18:19;;;;;;;12.80;8.30;;;;;;;3.49;100.00;100656.89;106368;1256;97996;-80
2023/04/02 13:21:22;;;;;;;13.50;8.80;;;;;;;3.50;100.00;100661.77;106142;1263;98067;-81
2023/04/02 13:24:19;;;;;;;14.20;8.50;;;;;;;3.52;100.00;100665.82;106179;1260;97986;-81
2023/04/02 13:27:05;;;;;;;14.40;8.90;;;;;;;3.52;100.00;100668.48;106250;1260;102698;-81